Time;durP1;ratioP1;P1;durP2;ratioP2;P2;SDS_P1;SDS_P2;PMS_P1;PMS_P2;Temp;Humidity;BMP_temperature;BMP_pressure;BME280_temperature;BME280_humidity;BME280_pressure;Samples;Min_cycle;Max_cycle;Signal;HPM_P1;HPM_P2
2022/05/29 00:01:56;;;;;;;3.33;1.50;;;;;;;8.88;100.00;101716.38;5044509;28;20033;-73
2022/05/29 00:04:23;;;;;;;5.82;1.83;;;;;;;8.85;100.00;101719.06;5005658;28;20449;-73
2022/05/29 00:06:58;;;;;;;4.28;1.60;;;;;;;8.81;100.00;101716.53;5031849;28;20717;-74
2022/05/29 00:09:42;;;;;;;4.25;1.55;;;;;;;8.77;100.00;101717.47;5013940;28;20005;-74
2022/05/29 00:12:09;;;;;;;5.03;1.48;;;;;;;8.77;100.00;101714.84;5039026;28;20029;-73
2022/05/29 00:14:35;;;;;;;2.55;1.58;;;;;;;8.74;100.00;101712.28;5044511;28;20537;-74
2022/05/29 00:17:01;;;;;;;6.72;1.65;;;;;;;8.70;100.00;101710.63;5049198;28;20040;-74
2022/05/29 00:23:05;;;;;;;4.97;1.70;;;;;;;8.59;100.00;101705.59;5026496;28;20605;-74
2022/05/29 00:25:31;;;;;;;4.93;1.40;;;;;;;8.54;100.00;101710.97;5050568;28;20036;-74
2022/05/29 00:27:56;;;;;;;3.67;1.38;;;;;;;8.48;100.00;101708.44;5028469;28;20056;-74
2022/05/29 00:30:22;;;;;;;4.05;1.23;;;;;;;8.41;100.00;101697.16;5020550;28;20082;-73
2022/05/29 00:32:48;;;;;;;4.15;1.70;;;;;;;8.37;100.00;101695.50;5034589;28;20460;-74
2022/05/29 00:35:13;;;;;;;3.95;1.60;;;;;;;8.31;100.00;101700.03;5018838;28;20471;-73
2022/05/29 00:37:40;;;;;;;4.25;1.63;;;;;;;8.28;100.00;101695.69;5035606;28;20122;-73
2022/05/29 00:40:24;;;;;;;3.15;1.58;;;;;;;8.22;100.00;101699.34;5001827;28;20097;-73
2022/05/29 00:42:49;;;;;;;5.65;1.65;;;;;;;8.18;100.00;101696.81;5008415;28;20037;-73
2022/05/29 00:45:18;;;;;;;6.18;1.80;;;;;;;8.12;100.00;101696.03;5019433;28;20052;-73
2022/05/29 00:47:44;;;;;;;6.78;2.00;;;;;;;8.08;100.00;101698.78;5021266;28;20025;-74
2022/05/29 00:50:13;;;;;;;4.03;1.55;;;;;;;8.06;100.00;101704.06;5045019;28;20044;-73
2022/05/29 00:52:38;;;;;;;2.50;1.42;;;;;;;8.05;100.00;101704.97;5031762;28;20028;-73
2022/05/29 00:55:16;;;;;;;6.82;1.80;;;;;;;8.09;100.00;101706.66;5029147;28;20071;-74
2022/05/29 00:57:46;;;;;;;5.80;1.58;;;;;;;8.14;100.00;101707.44;5043061;28;20029;-74
2022/05/29 01:00:22;;;;;;;5.40;1.70;;;;;;;8.17;100.00;101695.94;5026412;28;20021;-73
2022/05/29 01:02:48;;;;;;;3.40;1.95;;;;;;;8.21;100.00;101692.34;5048411;28;20025;-73
2022/05/29 01:05:17;;;;;;;9.20;1.92;;;;;;;8.28;100.00;101687.78;5013920;28;20035;-73
2022/05/29 01:07:45;;;;;;;6.72;2.15;;;;;;;8.34;100.00;101684.16;5020217;28;20025;-73
2022/05/29 01:10:11;;;;;;;4.93;2.03;;;;;;;8.39;100.00;101671.72;5023486;28;20029;-74
2022/05/29 01:12:55;;;;;;;5.25;1.80;;;;;;;8.41;100.00;101676.03;5034757;28;21558;-74
2022/05/29 01:15:27;;;;;;;5.13;1.92;;;;;;;8.43;100.00;101668.09;5035644;28;20090;-73
2022/05/29 01:18:31;;;;;;;4.22;1.63;;;;;;;8.46;100.00;101667.16;5028150;28;20037;-73
2022/05/29 01:21:26;;;;;;;3.75;1.70;;;;;;;8.46;100.00;101665.41;4949911;28;20046;-73
2022/05/29 01:23:52;;;;;;;4.95;1.90;;;;;;;8.47;100.00;101661.84;4948065;28;20035;-74
2022/05/29 01:26:28;;;;;;;5.65;1.80;;;;;;;8.47;100.00;101664.50;4963192;28;20034;-74
2022/05/29 01:28:54;;;;;;;6.80;1.83;;;;;;;8.49;100.00;101656.56;4959560;28;20116;-74
2022/05/29 01:31:48;;;;;;;4.55;1.80;;;;;;;8.48;100.00;101650.38;4959068;28;20064;-74
2022/05/29 01:34:25;;;;;;;7.10;2.00;;;;;;;8.52;100.00;101656.50;4955219;28;20042;-74
2022/05/29 01:37:12;;;;;;;6.55;2.33;;;;;;;8.54;100.00;101650.28;4965214;28;20045;-74
2022/05/29 01:39:50;;;;;;;6.75;1.77;;;;;;;8.56;100.00;101651.09;4963947;28;20038;-74
2022/05/29 01:42:34;;;;;;;6.22;1.83;;;;;;;8.61;100.00;101653.63;4955317;28;20464;-74
2022/05/29 01:45:05;;;;;;;8.98;1.90;;;;;;;8.65;100.00;101651.78;4969681;28;20747;-74
2022/05/29 01:47:53;;;;;;;7.95;2.15;;;;;;;8.69;100.00;101656.09;4972799;28;20038;-74
2022/05/29 01:50:23;;;;;;;4.45;1.83;;;;;;;8.72;100.00;101648.06;4963301;28;20050;-75
2022/05/29 01:53:02;;;;;;;8.68;2.10;;;;;;;8.78;100.00;101655.00;4963067;28;20163;-75
2022/05/29 01:55:43;;;;;;;7.18;1.60;;;;;;;8.81;100.00;101642.59;4947532;28;20043;-75
2022/05/29 01:58:14;;;;;;;5.60;1.80;;;;;;;8.85;100.00;101643.38;4973593;28;20037;-74
2022/05/29 02:00:40;;;;;;;3.10;1.55;;;;;;;8.87;100.00;101632.78;5027742;28;20115;-75
2022/05/29 02:03:09;;;;;;;8.32;1.83;;;;;;;8.87;100.00;101630.13;5035555;28;20033;-74
2022/05/29 02:05:39;;;;;;;4.60;1.75;;;;;;;8.86;100.00;101631.91;5019557;28;20043;-75
2022/05/29 02:08:36;;;;;;;7.78;1.90;;;;;;;8.84;100.00;101631.09;5038813;28;20642;-74
2022/05/29 02:11:07;;;;;;;5.75;1.70;;;;;;;8.82;100.00;101625.84;5037022;28;20468;-74
2022/05/29 02:13:43;;;;;;;4.75;1.70;;;;;;;8.81;100.00;101626.75;5018721;28;20036;-74
2022/05/29 02:16:16;;;;;;;3.60;1.65;;;;;;;8.81;100.00;101621.47;5036267;28;20037;-73
2022/05/29 02:19:03;;;;;;;4.45;1.60;;;;;;;8.81;100.00;101621.47;5035803;28;20029;-74
2022/05/29 02:21:32;;;;;;;3.33;1.40;;;;;;;8.80;100.00;101619.72;5017625;28;20502;-74
2022/05/29 02:24:00;;;;;;;2.72;1.48;;;;;;;8.79;100.00;101618.00;5017395;28;20036;-73
2022/05/29 02:26:30;;;;;;;2.75;1.48;;;;;;;8.79;100.00;101615.38;5019978;28;20055;-74
2022/05/29 02:29:01;;;;;;;3.70;1.25;;;;;;;8.79;100.00;101610.09;5020034;28;20368;-74
2022/05/29 02:32:14;;;;;;;5.32;1.60;;;;;;;8.79;100.00;101607.44;5035562;28;20032;-73
2022/05/29 02:34:48;;;;;;;2.58;1.35;;;;;;;8.80;100.00;101613.56;5016287;28;20499;-73
2022/05/29 02:37:29;;;;;;;3.72;1.30;;;;;;;8.80;100.00;101609.16;5041202;28;20032;-73
2022/05/29 02:40:24;;;;;;;3.88;1.55;;;;;;;8.80;100.00;101609.16;5051499;28;20098;-73
2022/05/29 02:43:22;;;;;;;2.22;1.40;;;;;;;8.79;100.00;101604.81;5053031;28;20037;-74
2022/05/29 02:46:01;;;;;;;5.97;1.40;;;;;;;8.80;100.00;101597.72;5052045;28;20060;-74
2022/05/29 02:48:50;;;;;;;3.42;1.52;;;;;;;8.79;100.00;101596.88;5020965;28;20050;-74
2022/05/29 02:51:59;;;;;;;5.35;1.60;;;;;;;8.79;100.00;101591.59;5020468;28;20719;-74
2022/05/29 02:54:27;;;;;;;4.40;1.75;;;;;;;8.81;100.00;101589.78;5055158;28;20039;-74
2022/05/29 02:56:54;;;;;;;4.57;1.80;;;;;;;8.80;100.00;101590.69;5034550;28;20028;-74
2022/05/29 02:59:26;;;;;;;4.38;1.48;;;;;;;8.83;100.00;101593.22;5024862;28;20040;-74
2022/05/29 03:02:37;;;;;;;8.00;2.00;;;;;;;8.81;100.00;101584.50;5011176;28;20115;-74
2022/05/29 03:05:29;;;;;;;2.85;1.63;;;;;;;8.75;100.00;101581.13;4996980;28;20059;-74
2022/05/29 03:08:37;;;;;;;5.60;1.75;;;;;;;8.72;100.00;101578.59;5034191;28;20032;-74
2022/05/29 03:11:09;;;;;;;7.43;1.95;;;;;;;8.69;100.00;101585.69;5035076;28;20045;-74
2022/05/29 03:13:42;;;;;;;6.00;1.98;;;;;;;8.69;100.00;101584.81;5010073;28;20059;-73
2022/05/29 03:16:22;;;;;;;;;;;;;;;8.70;100.00;101581.25;5036326;28;20044;-74
2022/05/29 03:18:59;;;;;;;2.90;1.77;;;;;;;8.69;100.00;101582.16;5016966;28;20503;-75
2022/05/29 03:21:41;;;;;;;8.63;1.80;;;;;;;8.71;100.00;101598.81;5017091;28;20029;-76
2022/05/29 03:24:15;;;;;;;4.13;1.35;;;;;;;8.72;100.00;101578.59;5008740;28;20491;-76
2022/05/29 03:26:52;;;;;;;4.50;1.83;;;;;;;8.68;100.00;101586.56;5033372;28;20156;-75
2022/05/29 03:29:53;;;;;;;8.02;1.90;;;;;;;8.66;100.00;101584.91;5017164;28;20040;-73
2022/05/29 03:32:19;;;;;;;7.38;2.03;;;;;;;8.64;100.00;101578.78;5016514;28;20068;-73
2022/05/29 03:34:45;;;;;;;8.65;2.30;;;;;;;8.62;100.00;101573.56;5016398;28;20033;-75
2022/05/29 03:37:12;;;;;;;4.55;1.95;;;;;;;8.63;100.00;101569.13;5016572;28;20098;-74
2022/05/29 03:39:37;;;;;;;7.57;1.55;;;;;;;8.62;100.00;101583.22;5038603;28;20040;-74
2022/05/29 03:42:03;;;;;;;4.15;1.67;;;;;;;8.62;100.00;101575.31;5020564;28;20476;-74
2022/05/29 03:44:29;;;;;;;3.65;1.70;;;;;;;8.59;100.00;101578.00;5028525;28;20094;-74
2022/05/29 03:46:54;;;;;;;3.22;1.45;;;;;;;8.55;100.00;101570.19;5038853;28;20037;-75
2022/05/29 03:49:21;;;;;;;6.88;1.60;;;;;;;8.53;100.00;101566.72;4996012;28;20037;-75
2022/05/29 03:51:47;;;;;;;9.88;1.42;;;;;;;8.51;100.00;101568.53;5038018;28;20581;-74
2022/05/29 03:54:13;;;;;;;1.23;1.00;;;;;;;8.50;100.00;101569.41;5036284;28;20572;-74
2022/05/29 03:56:39;;;;;;;1.70;1.00;;;;;;;8.51;100.00;101565.00;5038580;28;20381;-74
2022/05/29 03:59:05;;;;;;;4.63;1.33;;;;;;;8.49;100.00;101566.81;5038192;28;20040;-74
2022/05/29 04:01:32;;;;;;;3.53;1.20;;;;;;;8.47;100.00;101558.94;5020375;28;20032;-75
2022/05/29 04:03:57;;;;;;;2.70;1.25;;;;;;;8.44;100.00;101553.72;5038456;28;20037;-74
2022/05/29 04:06:27;;;;;;;3.95;1.40;;;;;;;8.43;100.00;101552.88;5038249;28;21447;-74
2022/05/29 04:14:24;;;;;;;4.28;1.30;;;;;;;8.40;100.00;101566.13;5023368;28;20036;-74
2022/05/29 04:16:50;;;;;;;4.78;1.75;;;;;;;8.36;100.00;101571.50;5020700;28;20040;-73
2022/05/29 04:19:16;;;;;;;3.20;1.33;;;;;;;8.29;100.00;101561.09;5017995;28;20064;-75
2022/05/29 04:21:43;;;;;;;3.53;1.38;;;;;;;8.27;100.00;101562.94;5018904;28;20033;-74
2022/05/29 04:24:08;;;;;;;3.97;1.60;;;;;;;8.26;100.00;101558.56;5019716;28;20029;-74
2022/05/29 04:26:34;;;;;;;4.95;1.73;;;;;;;8.27;100.00;101549.72;5018420;28;20518;-75
2022/05/29 04:29:00;;;;;;;7.40;1.60;;;;;;;8.27;100.00;101549.72;5017701;28;20029;-75
2022/05/29 04:31:26;;;;;;;3.60;1.58;;;;;;;8.27;100.00;101551.50;5032844;28;20102;-74
2022/05/29 04:33:52;;;;;;;2.58;1.40;;;;;;;8.29;100.00;101555.84;5015423;28;20045;-75
2022/05/29 04:36:17;;;;;;;4.57;1.60;;;;;;;8.32;100.00;101554.03;5017415;28;20551;-75
2022/05/29 04:38:43;;;;;;;3.97;1.40;;;;;;;8.33;100.00;101561.06;5016657;28;20041;-74
2022/05/29 04:41:09;;;;;;;6.90;1.58;;;;;;;8.36;100.00;101553.03;5017604;28;20067;-75
2022/05/29 04:43:35;;;;;;;2.95;1.33;;;;;;;8.37;100.00;101552.13;5016470;28;20029;-75
2022/05/29 04:46:01;;;;;;;5.53;1.58;;;;;;;8.38;100.00;101551.22;5016782;28;20705;-75
2022/05/29 04:48:26;;;;;;;4.40;1.10;;;;;;;8.38;100.00;101552.09;5032086;28;20033;-75
2022/05/29 04:50:59;;;;;;;3.35;1.75;;;;;;;8.42;100.00;101547.63;5031057;28;20045;-75
2022/05/29 04:53:27;;;;;;;5.82;1.38;;;;;;;8.45;100.00;101539.63;5017587;28;20392;-75
2022/05/29 04:55:53;;;;;;;3.70;1.00;;;;;;;8.49;100.00;101532.50;5016507;28;20039;-75
2022/05/29 04:58:19;;;;;;;3.85;1.40;;;;;;;8.52;100.00;101538.59;5016926;28;20033;-75
2022/05/29 05:00:45;;;;;;;3.33;1.25;;;;;;;8.56;100.00;101540.25;5017277;28;20056;-75
2022/05/29 05:03:10;;;;;;;1.52;1.20;;;;;;;8.61;100.00;101541.91;5016242;28;20030;-75
2022/05/29 05:05:36;;;;;;;3.08;1.40;;;;;;;8.63;100.00;101540.97;5017165;28;20041;-75
2022/05/29 05:08:03;;;;;;;1.60;0.95;;;;;;;8.66;100.00;101535.59;5016743;28;20143;-75
2022/05/29 05:10:28;;;;;;;2.60;1.45;;;;;;;8.70;100.00;101536.38;5017595;28;20035;-75
2022/05/29 05:12:54;;;;;;;1.95;1.15;;;;;;;8.74;100.00;101535.41;5016391;28;20041;-75
2022/05/29 05:15:20;;;;;;;4.28;1.50;;;;;;;8.76;100.00;101530.94;5000326;28;20060;-75
2022/05/29 05:17:45;;;;;;;3.92;1.52;;;;;;;8.78;100.00;101538.81;5014164;28;20431;-75
2022/05/29 05:20:11;;;;;;;3.03;1.40;;;;;;;8.81;100.00;101536.97;5029175;28;20041;-75
2022/05/29 05:22:37;;;;;;;7.55;1.40;;;;;;;8.82;100.00;101537.81;5036976;28;20033;-75
2022/05/29 05:25:03;;;;;;;2.35;1.42;;;;;;;8.86;100.00;101528.03;5034118;28;20082;-75
2022/05/29 05:27:29;;;;;;;2.15;1.05;;;;;;;8.86;100.00;101538.59;5002311;28;20032;-75
2022/05/29 05:29:54;;;;;;;2.03;1.08;;;;;;;8.88;100.00;101536.81;5018369;28;20430;-75
2022/05/29 05:32:19;;;;;;;5.53;1.33;;;;;;;8.89;100.00;101538.53;5017243;28;20503;-75
2022/05/29 05:34:45;;;;;;;3.45;1.05;;;;;;;8.91;100.00;101542.00;5036090;28;20036;-76
2022/05/29 05:37:12;;;;;;;4.40;1.45;;;;;;;8.90;100.00;101541.13;5036949;28;20025;-75
2022/05/29 05:39:38;;;;;;;5.95;1.58;;;;;;;8.94;100.00;101541.91;5035490;28;20115;-75
2022/05/29 05:42:15;;;;;;;5.55;1.10;;;;;;;8.93;100.00;101541.03;5018572;28;20084;-75
2022/05/29 05:44:41;;;;;;;6.03;1.30;;;;;;;8.96;100.00;101553.31;5036492;28;20372;-73
2022/05/29 05:47:07;;;;;;;6.47;1.50;;;;;;;8.98;100.00;101550.63;5037171;28;20168;-73
2022/05/29 05:49:32;;;;;;;3.30;1.15;;;;;;;9.01;100.00;101559.31;5036297;28;20120;-74
2022/05/29 05:51:59;;;;;;;3.78;1.20;;;;;;;9.02;100.00;101550.50;5035999;28;20384;-74
2022/05/29 05:54:25;;;;;;;4.63;1.20;;;;;;;9.04;100.00;101548.66;5035759;28;20028;-74
2022/05/29 05:56:51;;;;;;;4.22;1.10;;;;;;;9.06;100.00;101546.84;5020554;28;20044;-74
2022/05/29 05:59:17;;;;;;;2.53;1.20;;;;;;;9.12;100.00;101550.22;5035855;28;20041;-75
2022/05/29 06:01:43;;;;;;;6.50;1.40;;;;;;;9.19;100.00;101549.13;5035527;28;20091;-75
2022/05/29 06:04:08;;;;;;;2.45;1.20;;;;;;;9.24;100.00;101549.88;5018309;28;20033;-74
2022/05/29 06:06:43;;;;;;;4.10;0.90;;;;;;;9.30;100.00;101544.44;5040362;28;20078;-74
2022/05/29 06:09:09;;;;;;;4.50;1.50;;;;;;;9.34;100.00;101548.72;5043926;28;20086;-74
2022/05/29 06:11:39;;;;;;;2.78;1.10;;;;;;;9.40;100.00;101549.44;5001919;28;20036;-74
2022/05/29 06:14:06;;;;;;;8.27;1.55;;;;;;;9.47;100.00;101548.34;5050668;28;20128;-74
2022/05/29 06:16:32;;;;;;;6.32;1.65;;;;;;;9.51;100.00;101557.91;5052029;28;20124;-74
2022/05/29 06:18:57;;;;;;;7.10;1.13;;;;;;;9.55;100.00;101546.34;5033620;28;20032;-74
2022/05/29 06:21:23;;;;;;;2.88;1.05;;;;;;;9.61;100.00;101550.59;5002707;28;20040;-74
2022/05/29 06:23:49;;;;;;;5.07;1.33;;;;;;;9.65;100.00;101544.31;5040206;28;20033;-74
2022/05/29 06:26:14;;;;;;;7.30;1.27;;;;;;;9.72;100.00;101545.84;5026586;28;20094;-74
2022/05/29 06:28:41;;;;;;;3.35;1.27;;;;;;;9.78;100.00;101544.78;5010634;28;20082;-74
2022/05/29 06:31:08;;;;;;;1.10;0.80;;;;;;;9.84;100.00;101551.66;5020463;28;20147;-75
2022/05/29 06:33:34;;;;;;;3.15;1.00;;;;;;;9.86;100.00;101555.13;5036973;28;20464;-75
2022/05/29 06:36:17;;;;;;;2.72;0.90;;;;;;;9.86;100.00;101558.63;5038294;28;20087;-75
2022/05/29 06:38:44;;;;;;;2.58;1.35;;;;;;;9.81;100.00;101560.53;5019877;28;20179;-74
2022/05/29 06:41:11;;;;;;;8.45;1.40;;;;;;;9.70;100.00;101566.16;5039321;28;20078;-74
2022/05/29 06:43:37;;;;;;;6.10;1.20;;;;;;;9.59;100.00;101573.56;5010703;28;20097;-74
2022/05/29 06:46:05;;;;;;;4.72;1.00;;;;;;;9.48;100.00;101564.16;5037962;28;20509;-75
2022/05/29 06:48:35;;;;;;;3.17;1.20;;;;;;;9.40;99.80;101552.06;5037625;28;20112;-74
2022/05/29 06:51:08;;;;;;;3.15;0.85;;;;;;;9.35;99.78;101558.38;5037262;28;20043;-74
2022/05/29 06:53:35;;;;;;;3.75;1.10;;;;;;;9.36;99.66;101562.75;5036797;28;20051;-74
2022/05/29 06:56:00;;;;;;;3.15;0.98;;;;;;;9.35;99.74;101560.13;5037357;28;20057;-74
2022/05/29 06:58:26;;;;;;;4.68;1.10;;;;;;;9.37;99.13;101566.25;5036040;28;20132;-74
2022/05/29 07:09:05;;;;;;;4.53;1.20;;;;;;;9.61;99.17;101564.69;5039120;28;20029;-74
2022/05/29 07:11:35;;;;;;;2.75;1.10;;;;;;;9.65;98.23;101558.38;5019036;28;20108;-75
2022/05/29 07:14:05;;;;;;;7.85;1.05;;;;;;;9.71;97.82;101567.03;5037175;28;20414;-74
2022/05/29 07:16:32;;;;;;;6.28;0.98;;;;;;;9.72;98.27;101576.69;5036845;28;20048;-75
2022/05/29 07:18:58;;;;;;;4.30;0.98;;;;;;;9.72;96.86;101566.13;5019203;28;20037;-74
2022/05/29 07:21:24;;;;;;;6.88;1.20;;;;;;;9.73;95.93;101573.13;5038473;28;20033;-74
2022/05/29 07:23:51;;;;;;;3.50;1.13;;;;;;;9.75;96.27;101582.75;5020148;28;20080;-74
2022/05/29 07:26:17;;;;;;;3.35;1.10;;;;;;;9.77;96.54;101561.56;5038288;28;20100;-74
2022/05/29 07:28:43;;;;;;;2.90;0.85;;;;;;;9.81;95.70;101576.41;5020076;28;20548;-75
2022/05/29 07:31:09;;;;;;;4.05;0.85;;;;;;;9.83;95.81;101571.06;5038253;28;20033;-75
2022/05/29 07:33:35;;;;;;;6.65;1.10;;;;;;;9.86;95.17;101577.13;5019232;28;20028;-75
2022/05/29 07:36:00;;;;;;;7.28;0.88;;;;;;;9.88;94.86;101577.97;5038164;28;20086;-74
2022/05/29 07:38:27;;;;;;;4.55;0.90;;;;;;;9.88;94.69;101567.41;5037085;28;20076;-75
2022/05/29 07:40:53;;;;;;;3.08;1.00;;;;;;;9.92;95.28;101574.31;5038372;28;20041;-74
2022/05/29 07:43:18;;;;;;;2.63;1.10;;;;;;;9.97;95.45;101573.31;5020755;28;20552;-75
2022/05/29 07:45:47;;;;;;;5.25;0.85;;;;;;;9.99;95.58;101576.75;5036501;28;20032;-75
2022/05/29 07:48:15;;;;;;;1.98;0.88;;;;;;;10.03;95.39;101576.63;5039268;28;20155;-75
2022/05/29 07:50:43;;;;;;;4.15;1.00;;;;;;;10.06;94.08;101570.38;5019232;28;20036;-74
2022/05/29 07:53:13;;;;;;;1.85;1.05;;;;;;;10.12;95.49;101580.75;5045110;28;20045;-74
2022/05/29 07:55:39;;;;;;;2.97;1.10;;;;;;;10.14;95.04;101563.03;5045780;28;20067;-74
2022/05/29 07:58:06;;;;;;;4.35;1.00;;;;;;;10.17;95.79;101568.25;5058878;28;20541;-75
2022/05/29 08:00:33;;;;;;;2.45;0.90;;;;;;;10.22;91.97;101581.31;5038322;28;20033;-75
2022/05/29 08:02:58;;;;;;;2.00;0.82;;;;;;;10.20;91.86;101577.88;5014571;28;21555;-75
2022/05/29 08:05:25;;;;;;;4.03;0.98;;;;;;;10.23;90.64;101574.28;5032628;28;20033;-75
2022/05/29 08:07:51;;;;;;;4.03;0.80;;;;;;;10.30;93.09;101567.84;5032645;28;20131;-75
2022/05/29 08:10:18;;;;;;;2.60;0.80;;;;;;;10.38;92.49;101568.47;5015160;28;20032;-75
2022/05/29 08:12:44;;;;;;;2.58;0.80;;;;;;;10.48;93.03;101566.41;5015421;28;20036;-74
2022/05/29 08:15:10;;;;;;;2.55;0.80;;;;;;;10.56;92.11;101568.78;5014317;28;20415;-74
2022/05/29 08:17:37;;;;;;;4.00;0.90;;;;;;;10.62;91.90;101576.53;5014761;28;20029;-75
2022/05/29 08:20:03;;;;;;;2.85;1.17;;;;;;;10.66;92.28;101566.69;5032008;28;20045;-75
2022/05/29 08:22:29;;;;;;;3.83;0.80;;;;;;;10.68;91.13;101589.56;5032738;28;20061;-75
2022/05/29 08:30:43;;;;;;;4.38;0.93;;;;;;;10.73;90.34;101574.38;5035957;28;20039;-74
2022/05/29 08:33:12;;;;;;;1.10;0.70;;;;;;;10.76;89.46;101577.84;5036878;28;20040;-74
2022/05/29 08:35:40;;;;;;;0.82;0.52;;;;;;;10.69;88.25;101593.09;5035696;28;20061;-75
2022/05/29 08:38:07;;;;;;;0.73;0.60;;;;;;;10.62;87.06;101575.66;5037896;28;20053;-75
2022/05/29 08:40:42;;;;;;;4.03;0.70;;;;;;;10.59;87.40;101579.28;5037265;28;20075;-75
2022/05/29 08:43:11;;;;;;;1.95;0.60;;;;;;;10.52;89.41;101580.41;5037121;28;20043;-75
2022/05/29 08:45:37;;;;;;;3.75;0.60;;;;;;;10.43;89.76;101590.41;5034437;28;20029;-74
2022/05/29 08:48:03;;;;;;;1.08;0.73;;;;;;;10.39;89.79;101586.06;5034650;28;20464;-74
2022/05/29 08:50:39;;;;;;;5.05;0.80;;;;;;;10.31;88.65;101588.97;5036083;28;20029;-74
2022/05/29 08:53:08;;;;;;;1.52;0.60;;;;;;;10.32;90.55;101581.91;5001795;28;20387;-75
2022/05/29 08:55:50;;;;;;;3.20;0.77;;;;;;;10.27;91.13;101581.19;5034224;28;20033;-74
2022/05/29 08:58:40;;;;;;;2.75;0.88;;;;;;;10.21;91.18;101594.59;5017688;28;20060;-74
2022/05/29 09:01:10;;;;;;;2.70;0.77;;;;;;;10.14;91.47;101596.59;5033553;28;20044;-74
2022/05/29 09:03:36;;;;;;;3.78;0.85;;;;;;;10.08;91.87;101583.56;5001597;28;20094;-75
2022/05/29 09:06:07;;;;;;;1.65;0.60;;;;;;;10.02;91.66;101585.47;5008773;28;20037;-75
2022/05/29 09:08:37;;;;;;;3.65;1.02;;;;;;;9.99;92.40;101580.28;5035707;28;20051;-75
2022/05/29 09:11:08;;;;;;;4.03;0.90;;;;;;;9.98;92.76;101573.25;5017567;28;20021;-75
2022/05/29 09:13:37;;;;;;;5.18;0.93;;;;;;;10.01;92.95;101572.28;5017233;28;20039;-75
2022/05/29 09:16:23;;;;;;;1.63;0.70;;;;;;;10.12;94.16;101564.00;5034071;28;20033;-74
2022/05/29 09:19:05;;;;;;;3.53;1.20;;;;;;;10.27;93.31;101563.53;5035337;28;20071;-74
2022/05/29 09:21:55;;;;;;;1.90;0.70;;;;;;;10.45;93.40;101556.78;5000576;28;20041;-75
2022/05/29 09:24:40;;;;;;;2.53;1.00;;;;;;;10.65;92.88;101560.53;5015992;28;20030;-74
2022/05/29 09:27:08;;;;;;;1.83;0.77;;;;;;;10.80;91.81;101564.44;5016302;28;20117;-75
2022/05/29 09:29:36;;;;;;;2.90;0.73;;;;;;;10.88;90.63;101563.31;5016702;28;20030;-75
2022/05/29 09:32:05;;;;;;;3.42;0.93;;;;;;;10.86;88.89;101568.66;5014770;28;20025;-74
2022/05/29 09:34:31;;;;;;;1.45;0.80;;;;;;;10.79;86.34;101561.84;4999469;28;20041;-74
2022/05/29 09:37:23;;;;;;;2.17;0.63;;;;;;;10.67;85.81;101565.78;4999511;28;20096;-75
2022/05/29 09:39:53;;;;;;;2.72;0.75;;;;;;;10.60;85.39;101549.25;5015597;28;20447;-75
2022/05/29 09:42:24;;;;;;;3.20;0.90;;;;;;;10.54;85.80;101565.31;5014765;28;20037;-74
2022/05/29 09:45:21;;;;;;;1.23;0.60;;;;;;;10.51;85.86;101566.28;5001171;28;20034;-74
2022/05/29 09:50:44;;;;;;;1.75;0.70;;;;;;;10.62;87.04;101567.72;5015179;28;20048;-73
2022/05/29 09:53:17;;;;;;;1.85;0.70;;;;;;;10.64;84.70;101566.75;4999770;28;20025;-74
2022/05/29 09:55:58;;;;;;;1.17;0.60;;;;;;;10.65;85.35;101568.50;5000170;28;20116;-74
2022/05/29 09:58:27;;;;;;;1.35;0.80;;;;;;;10.73;86.05;101560.25;5015157;28;20061;-76
2022/05/29 10:01:01;;;;;;;2.88;0.90;;;;;;;10.80;86.01;101560.94;5015248;28;20028;-74
2022/05/29 10:03:42;;;;;;;3.30;0.82;;;;;;;10.82;86.08;101569.69;4999849;28;20033;-75
2022/05/29 10:06:18;;;;;;;3.78;0.80;;;;;;;10.79;86.24;101567.16;5014445;28;20117;-74
2022/05/29 10:08:45;;;;;;;2.88;0.88;;;;;;;10.71;85.61;101562.09;5015305;28;20563;-75
2022/05/29 10:11:15;;;;;;;2.03;0.70;;;;;;;10.58;86.58;101567.81;5004655;28;20033;-74
2022/05/29 10:13:41;;;;;;;2.35;0.65;;;;;;;10.49;87.84;101572.56;5014763;28;20168;-74
2022/05/29 10:16:08;;;;;;;1.10;0.80;;;;;;;10.38;89.42;101571.13;5014830;28;20037;-74
2022/05/29 10:18:42;;;;;;;1.92;0.80;;;;;;;10.27;89.33;101567.94;4998233;28;20042;-74
2022/05/29 10:21:36;;;;;;;2.15;0.52;;;;;;;10.20;87.66;101567.28;5028425;28;20593;-74
2022/05/29 10:24:23;;;;;;;2.58;1.17;;;;;;;10.22;87.66;101564.56;4994840;28;20670;-74
2022/05/29 10:26:54;;;;;;;1.83;0.82;;;;;;;10.28;87.29;101556.44;5013781;28;20072;-74
2022/05/29 10:29:27;;;;;;;0.60;0.60;;;;;;;10.39;86.44;101558.72;5014367;28;20037;-74
2022/05/29 10:31:53;;;;;;;1.27;0.60;;;;;;;10.48;85.80;101552.28;5028819;28;20055;-74
2022/05/29 10:34:28;;;;;;;1.20;0.52;;;;;;;10.60;86.84;101549.25;5012723;28;20476;-74
2022/05/29 10:36:54;;;;;;;2.70;0.60;;;;;;;10.76;86.51;101561.94;5013481;28;20040;-74
2022/05/29 10:39:27;;;;;;;0.70;0.57;;;;;;;10.86;83.79;101553.63;4994831;28;20256;-74
2022/05/29 10:41:54;;;;;;;2.20;0.70;;;;;;;10.95;84.31;101557.72;5012874;28;20040;-74
2022/05/29 10:44:41;;;;;;;1.48;0.70;;;;;;;11.06;82.58;101548.53;4963268;28;20087;-75
2022/05/29 10:47:16;;;;;;;0.95;0.60;;;;;;;11.19;84.58;101551.59;5028962;28;20033;-73
2022/05/29 10:50:10;;;;;;;1.10;0.75;;;;;;;11.34;84.12;101542.22;5003864;28;20455;-74
2022/05/29 10:52:59;;;;;;;1.73;0.80;;;;;;;11.54;83.63;101547.63;5013125;28;20095;-75
2022/05/29 10:55:54;;;;;;;1.92;0.82;;;;;;;11.58;81.53;101547.50;5028376;28;20083;-74
2022/05/29 10:58:26;;;;;;;5.20;0.70;;;;;;;11.57;82.69;101551.06;5005419;28;20420;-74
2022/05/29 11:04:24;;;;;;;1.50;0.73;;;;;;;11.38;81.98;101543.81;5028686;28;20038;-74
2022/05/29 11:06:57;;;;;;;1.33;0.85;;;;;;;11.36;82.99;101551.84;5013421;28;20538;-74
2022/05/29 11:09:30;;;;;;;;;;;;;;;11.31;81.79;101555.56;4996160;28;20385;-74
2022/05/29 11:12:00;;;;;;;2.45;0.80;;;;;;;11.26;83.58;101553.09;4995968;28;19925;-74
2022/05/29 11:14:55;;;;;;;1.65;0.70;;;;;;;11.17;84.28;101564.91;5013513;28;20037;-75
2022/05/29 11:17:29;;;;;;;1.52;0.60;;;;;;;10.99;86.04;101562.00;4993038;28;20053;-74
2022/05/29 11:19:58;;;;;;;3.25;0.77;;;;;;;10.83;86.90;101559.03;5019481;28;20045;-74
2022/05/29 11:22:58;;;;;;;2.40;0.73;;;;;;;10.71;88.12;101555.03;5031508;28;20487;-74
2022/05/29 11:25:42;;;;;;;4.03;0.90;;;;;;;10.69;87.96;101556.00;5030027;28;20037;-75
2022/05/29 11:28:11;;;;;;;3.08;0.60;;;;;;;10.68;88.04;101557.78;5031798;28;20029;-75
2022/05/29 11:31:11;;;;;;;2.53;0.77;;;;;;;10.77;88.60;101551.31;5032684;28;20144;-75
2022/05/29 11:33:53;;;;;;;1.02;0.57;;;;;;;10.87;87.52;101554.50;5032662;28;20041;-75
2022/05/29 11:36:28;;;;;;;2.63;0.73;;;;;;;10.98;87.20;101543.50;5015430;28;20041;-76
2022/05/29 11:39:18;;;;;;;2.42;0.63;;;;;;;11.08;85.53;101541.41;5014584;28;20513;-74
2022/05/29 11:42:02;;;;;;;3.97;0.85;;;;;;;11.21;84.99;101532.06;5015456;28;20710;-75
2022/05/29 11:44:34;;;;;;;2.38;0.70;;;;;;;11.34;85.34;101532.47;5031260;28;20112;-75
2022/05/29 11:52:54;;;;;;;3.58;0.70;;;;;;;11.93;82.69;101521.41;5016912;28;20068;-75
2022/05/29 11:55:22;;;;;;;2.67;0.65;;;;;;;12.00;83.19;101522.88;5033502;28;20387;-75
2022/05/29 11:58:01;;;;;;;3.20;0.70;;;;;;;12.05;81.38;101518.25;5030685;28;20143;-75
2022/05/29 12:00:41;;;;;;;1.63;0.68;;;;;;;12.13;80.71;101515.28;5026671;28;20036;-74
2022/05/29 12:03:19;;;;;;;1.95;0.60;;;;;;;12.17;80.05;101521.34;5018497;28;20036;-75
2022/05/29 12:06:02;;;;;;;6.05;0.70;;;;;;;12.10;78.02;101510.13;5026886;28;20560;-74
2022/05/29 12:08:47;;;;;;;3.20;0.80;;;;;;;12.01;78.98;101513.09;5036918;28;20408;-75
2022/05/29 12:11:35;;;;;;;2.03;0.73;;;;;;;11.95;79.51;101516.88;5018094;28;20041;-75
2022/05/29 12:14:06;;;;;;;3.65;0.77;;;;;;;11.81;81.35;101518.31;5018973;28;20072;-75
2022/05/29 12:16:33;;;;;;;0.98;0.60;;;;;;;11.63;82.10;101526.97;5009984;28;20057;-75
2022/05/29 12:19:02;;;;;;;2.10;0.65;;;;;;;11.52;82.73;101522.09;5018815;28;20578;-75
2022/05/29 12:21:35;;;;;;;3.75;1.35;;;;;;;11.47;82.68;101519.63;5031641;28;20041;-75
2022/05/29 12:24:02;;;;;;;2.20;0.80;;;;;;;11.45;83.22;101513.53;4998502;28;21475;-75
2022/05/29 12:26:40;;;;;;;7.35;0.95;;;;;;;11.50;82.74;101516.00;5016755;28;20529;-74